sensor_id;sensor_type;location;lat;lon;timestamp;P1;durP1;ratioP1;P2;durP2;ratioP2
72062;SDS011;59929;43.546;-5.702;2022-09-09T00:02:23;0.00;;;0.00;;
72062;SDS011;59929;43.546;-5.702;2022-09-09T00:04:58;0.00;;;0.00;;
72062;SDS011;59929;43.546;-5.702;2022-09-09T00:15:59;0.00;;;0.00;;
72062;SDS011;59929;43.546;-5.702;2022-09-09T00:21:35;0.00;;;0.00;;
72062;SDS011;59929;43.546;-5.702;2022-09-09T00:24:08;0.00;;;0.00;;
72062;SDS011;59929;43.546;-5.702;2022-09-09T00:26:51;0.00;;;0.00;;
72062;SDS011;59929;43.546;-5.702;2022-09-09T00:29:28;0.00;;;0.00;;
72062;SDS011;59929;43.546;-5.702;2022-09-09T00:32:09;0.00;;;0.00;;
72062;SDS011;59929;43.546;-5.702;2022-09-09T00:34:46;0.00;;;0.00;;
72062;SDS011;59929;43.546;-5.702;2022-09-09T00:37:16;0.00;;;0.00;;
72062;SDS011;59929;43.546;-5.702;2022-09-09T00:39:44;0.00;;;0.00;;
72062;SDS011;59929;43.546;-5.702;2022-09-09T00:42:14;0.00;;;0.00;;
72062;SDS011;59929;43.546;-5.702;2022-09-09T00:44:59;0.00;;;0.00;;
72062;SDS011;59929;43.546;-5.702;2022-09-09T00:47:38;0.00;;;0.00;;
72062;SDS011;59929;43.546;-5.702;2022-09-09T00:50:30;0.00;;;0.00;;
72062;SDS011;59929;43.546;-5.702;2022-09-09T00:56:14;0.00;;;0.00;;
72062;SDS011;59929;43.546;-5.702;2022-09-09T00:58:50;0.00;;;0.00;;
72062;SDS011;59929;43.546;-5.702;2022-09-09T01:01:32;0.00;;;0.00;;
72062;SDS011;59929;43.546;-5.702;2022-09-09T01:03:57;0.00;;;0.00;;
72062;SDS011;59929;43.546;-5.702;2022-09-09T01:06:32;0.00;;;0.00;;
72062;SDS011;59929;43.546;-5.702;2022-09-09T01:12:03;0.00;;;0.00;;
72062;SDS011;59929;43.546;-5.702;2022-09-09T01:14:39;0.00;;;0.00;;
72062;SDS011;59929;43.546;-5.702;2022-09-09T01:17:14;0.00;;;0.00;;
72062;SDS011;59929;43.546;-5.702;2022-09-09T01:19:52;0.10;;;0.00;;
72062;SDS011;59929;43.546;-5.702;2022-09-09T01:22:37;0.00;;;0.00;;
72062;SDS011;59929;43.546;-5.702;2022-09-09T01:28:16;0.00;;;0.00;;
72062;SDS011;59929;43.546;-5.702;2022-09-09T01:30:48;0.00;;;0.00;;
72062;SDS011;59929;43.546;-5.702;2022-09-09T01:33:15;0.00;;;0.00;;
72062;SDS011;59929;43.546;-5.702;2022-09-09T01:35:46;0.00;;;0.00;;
72062;SDS011;59929;43.546;-5.702;2022-09-09T01:38:19;0.00;;;0.00;;
72062;SDS011;59929;43.546;-5.702;2022-09-09T01:40:46;0.00;;;0.00;;
72062;SDS011;59929;43.546;-5.702;2022-09-09T01:43:12;0.00;;;0.00;;
72062;SDS011;59929;43.546;-5.702;2022-09-09T01:45:39;0.00;;;0.00;;
72062;SDS011;59929;43.546;-5.702;2022-09-09T01:48:08;0.00;;;0.00;;
72062;SDS011;59929;43.546;-5.702;2022-09-09T01:50:34;0.00;;;0.00;;
72062;SDS011;59929;43.546;-5.702;2022-09-09T01:52:59;0.00;;;0.00;;
72062;SDS011;59929;43.546;-5.702;2022-09-09T01:55:29;0.00;;;0.00;;
72062;SDS011;59929;43.546;-5.702;2022-09-09T02:00:41;0.00;;;0.00;;
72062;SDS011;59929;43.546;-5.702;2022-09-09T02:03:31;0.00;;;0.00;;
72062;SDS011;59929;43.546;-5.702;2022-09-09T02:06:05;0.00;;;0.00;;
72062;SDS011;59929;43.546;-5.702;2022-09-09T02:08:47;0.00;;;0.00;;
72062;SDS011;59929;43.546;-5.702;2022-09-09T02:11:18;0.00;;;0.00;;
72062;SDS011;59929;43.546;-5.702;2022-09-09T02:13:46;0.00;;;0.00;;
72062;SDS011;59929;43.546;-5.702;2022-09-09T02:16:16;0.00;;;0.00;;
72062;SDS011;59929;43.546;-5.702;2022-09-09T02:18:50;0.00;;;0.00;;
72062;SDS011;59929;43.546;-5.702;2022-09-09T02:21:20;0.00;;;0.00;;
72062;SDS011;59929;43.546;-5.702;2022-09-09T02:23:48;0.00;;;0.00;;
72062;SDS011;59929;43.546;-5.702;2022-09-09T02:26:18;0.00;;;0.00;;
72062;SDS011;59929;43.546;-5.702;2022-09-09T02:28:48;0.00;;;0.00;;
72062;SDS011;59929;43.546;-5.702;2022-09-09T02:31:18;0.00;;;0.00;;
72062;SDS011;59929;43.546;-5.702;2022-09-09T02:33:49;0.00;;;0.00;;
72062;SDS011;59929;43.546;-5.702;2022-09-09T02:36:19;0.00;;;0.00;;
72062;SDS011;59929;43.546;-5.702;2022-09-09T02:38:48;0.00;;;0.00;;
72062;SDS011;59929;43.546;-5.702;2022-09-09T02:41:17;0.00;;;0.00;;
72062;SDS011;59929;43.546;-5.702;2022-09-09T02:43:51;0.00;;;0.00;;
72062;SDS011;59929;43.546;-5.702;2022-09-09T02:49:22;0.00;;;0.00;;
72062;SDS011;59929;43.546;-5.702;2022-09-09T02:52:00;0.00;;;0.00;;
72062;SDS011;59929;43.546;-5.702;2022-09-09T02:54:31;0.00;;;0.00;;
72062;SDS011;59929;43.546;-5.702;2022-09-09T02:57:01;0.00;;;0.00;;
72062;SDS011;59929;43.546;-5.702;2022-09-09T02:59:36;0.00;;;0.00;;
72062;SDS011;59929;43.546;-5.702;2022-09-09T03:02:03;0.00;;;0.00;;
72062;SDS011;59929;43.546;-5.702;2022-09-09T03:04:29;0.00;;;0.00;;
72062;SDS011;59929;43.546;-5.702;2022-09-09T03:06:56;0.00;;;0.00;;
72062;SDS011;59929;43.546;-5.702;2022-09-09T03:09:23;0.00;;;0.00;;
72062;SDS011;59929;43.546;-5.702;2022-09-09T03:11:49;0.00;;;0.00;;
72062;SDS011;59929;43.546;-5.702;2022-09-09T03:14:15;0.03;;;0.00;;
72062;SDS011;59929;43.546;-5.702;2022-09-09T03:16:41;0.00;;;0.00;;
72062;SDS011;59929;43.546;-5.702;2022-09-09T03:19:08;0.00;;;0.00;;
72062;SDS011;59929;43.546;-5.702;2022-09-09T03:21:34;0.00;;;0.00;;
72062;SDS011;59929;43.546;-5.702;2022-09-09T03:24:01;0.00;;;0.00;;
72062;SDS011;59929;43.546;-5.702;2022-09-09T03:26:28;0.00;;;0.00;;
72062;SDS011;59929;43.546;-5.702;2022-09-09T03:28:55;0.00;;;0.00;;
72062;SDS011;59929;43.546;-5.702;2022-09-09T03:31:21;0.00;;;0.00;;
72062;SDS011;59929;43.546;-5.702;2022-09-09T03:33:47;0.00;;;0.00;;
72062;SDS011;59929;43.546;-5.702;2022-09-09T03:36:13;0.00;;;0.00;;
72062;SDS011;59929;43.546;-5.702;2022-09-09T03:38:40;0.00;;;0.00;;
72062;SDS011;59929;43.546;-5.702;2022-09-09T03:41:06;0.00;;;0.00;;
72062;SDS011;59929;43.546;-5.702;2022-09-09T03:43:32;0.00;;;0.00;;
72062;SDS011;59929;43.546;-5.702;2022-09-09T03:45:58;0.00;;;0.00;;
72062;SDS011;59929;43.546;-5.702;2022-09-09T03:48:24;0.00;;;0.00;;
72062;SDS011;59929;43.546;-5.702;2022-09-09T03:50:52;0.17;;;0.00;;
72062;SDS011;59929;43.546;-5.702;2022-09-09T03:53:20;0.00;;;0.00;;
72062;SDS011;59929;43.546;-5.702;2022-09-09T03:55:47;0.00;;;0.00;;
72062;SDS011;59929;43.546;-5.702;2022-09-09T03:58:15;0.00;;;0.00;;
72062;SDS011;59929;43.546;-5.702;2022-09-09T04:00:43;0.00;;;0.00;;
72062;SDS011;59929;43.546;-5.702;2022-09-09T04:03:17;0.00;;;0.00;;
72062;SDS011;59929;43.546;-5.702;2022-09-09T04:05:43;0.00;;;0.00;;
72062;SDS011;59929;43.546;-5.702;2022-09-09T04:08:09;0.10;;;0.00;;
72062;SDS011;59929;43.546;-5.702;2022-09-09T04:10:34;0.00;;;0.00;;
72062;SDS011;59929;43.546;-5.702;2022-09-09T04:13:02;0.13;;;0.00;;
72062;SDS011;59929;43.546;-5.702;2022-09-09T04:15:29;0.00;;;0.00;;
72062;SDS011;59929;43.546;-5.702;2022-09-09T04:17:55;0.00;;;0.00;;
72062;SDS011;59929;43.546;-5.702;2022-09-09T04:20:21;0.00;;;0.00;;
72062;SDS011;59929;43.546;-5.702;2022-09-09T04:22:47;0.00;;;0.00;;
72062;SDS011;59929;43.546;-5.702;2022-09-09T04:25:13;0.00;;;0.00;;
72062;SDS011;59929;43.546;-5.702;2022-09-09T04:27:39;0.00;;;0.00;;
72062;SDS011;59929;43.546;-5.702;2022-09-09T04:30:05;0.00;;;0.00;;
72062;SDS011;59929;43.546;-5.702;2022-09-09T04:32:32;0.10;;;0.00;;
72062;SDS011;59929;43.546;-5.702;2022-09-09T04:34:58;0.00;;;0.00;;
72062;SDS011;59929;43.546;-5.702;2022-09-09T04:37:24;0.00;;;0.00;;
72062;SDS011;59929;43.546;-5.702;2022-09-09T04:39:50;0.00;;;0.00;;
72062;SDS011;59929;43.546;-5.702;2022-09-09T04:42:16;0.00;;;0.00;;
72062;SDS011;59929;43.546;-5.702;2022-09-09T04:44:44;0.00;;;0.00;;
72062;SDS011;59929;43.546;-5.702;2022-09-09T04:47:09;0.00;;;0.00;;
72062;SDS011;59929;43.546;-5.702;2022-09-09T04:49:35;0.00;;;0.00;;
72062;SDS011;59929;43.546;-5.702;2022-09-09T04:52:02;0.00;;;0.00;;
72062;SDS011;59929;43.546;-5.702;2022-09-09T04:54:28;0.00;;;0.00;;
72062;SDS011;59929;43.546;-5.702;2022-09-09T04:56:54;0.00;;;0.00;;
72062;SDS011;59929;43.546;-5.702;2022-09-09T04:59:20;0.00;;;0.00;;
72062;SDS011;59929;43.546;-5.702;2022-09-09T05:01:46;0.00;;;0.00;;
72062;SDS011;59929;43.546;-5.702;2022-09-09T05:04:12;0.00;;;0.00;;
72062;SDS011;59929;43.546;-5.702;2022-09-09T05:06:39;0.00;;;0.00;;
72062;SDS011;59929;43.546;-5.702;2022-09-09T05:09:04;0.00;;;0.00;;
72062;SDS011;59929;43.546;-5.702;2022-09-09T05:11:31;0.00;;;0.00;;
72062;SDS011;59929;43.546;-5.702;2022-09-09T05:13:59;0.00;;;0.00;;
72062;SDS011;59929;43.546;-5.702;2022-09-09T05:16:25;0.00;;;0.00;;
72062;SDS011;59929;43.546;-5.702;2022-09-09T05:18:51;0.00;;;0.00;;
72062;SDS011;59929;43.546;-5.702;2022-09-09T05:21:17;0.00;;;0.00;;
72062;SDS011;59929;43.546;-5.702;2022-09-09T05:23:44;0.00;;;0.00;;
72062;SDS011;59929;43.546;-5.702;2022-09-09T05:26:11;0.00;;;0.00;;
72062;SDS011;59929;43.546;-5.702;2022-09-09T05:28:39;0.00;;;0.00;;
72062;SDS011;59929;43.546;-5.702;2022-09-09T05:31:06;0.00;;;0.00;;
72062;SDS011;59929;43.546;-5.702;2022-09-09T05:33:33;0.00;;;0.00;;
72062;SDS011;59929;43.546;-5.702;2022-09-09T05:36:01;0.00;;;0.00;;
72062;SDS011;59929;43.546;-5.702;2022-09-09T05:38:29;0.00;;;0.00;;
72062;SDS011;59929;43.546;-5.702;2022-09-09T05:40:56;0.00;;;0.00;;
72062;SDS011;59929;43.546;-5.702;2022-09-09T05:43:22;0.00;;;0.00;;
72062;SDS011;59929;43.546;-5.702;2022-09-09T05:45:58;0.00;;;0.00;;
72062;SDS011;59929;43.546;-5.702;2022-09-09T05:48:28;0.00;;;0.00;;
72062;SDS011;59929;43.546;-5.702;2022-09-09T05:50:54;0.00;;;0.00;;
72062;SDS011;59929;43.546;-5.702;2022-09-09T05:53:20;0.00;;;0.00;;
72062;SDS011;59929;43.546;-5.702;2022-09-09T05:55:46;0.00;;;0.00;;
72062;SDS011;59929;43.546;-5.702;2022-09-09T05:58:12;0.00;;;0.00;;
72062;SDS011;59929;43.546;-5.702;2022-09-09T06:00:39;0.00;;;0.00;;
72062;SDS011;59929;43.546;-5.702;2022-09-09T06:03:05;0.00;;;0.00;;
72062;SDS011;59929;43.546;-5.702;2022-09-09T06:05:30;0.00;;;0.00;;
72062;SDS011;59929;43.546;-5.702;2022-09-09T06:07:56;0.00;;;0.00;;
72062;SDS011;59929;43.546;-5.702;2022-09-09T06:10:22;0.00;;;0.00;;
72062;SDS011;59929;43.546;-5.702;2022-09-09T06:12:48;0.00;;;0.00;;
72062;SDS011;59929;43.546;-5.702;2022-09-09T06:15:13;0.00;;;0.00;;
72062;SDS011;59929;43.546;-5.702;2022-09-09T06:17:39;0.00;;;0.00;;
72062;SDS011;59929;43.546;-5.702;2022-09-09T06:20:06;0.00;;;0.00;;
72062;SDS011;59929;43.546;-5.702;2022-09-09T06:22:34;0.00;;;0.00;;
72062;SDS011;59929;43.546;-5.702;2022-09-09T06:24:59;0.00;;;0.00;;
72062;SDS011;59929;43.546;-5.702;2022-09-09T06:27:26;0.10;;;0.00;;
72062;SDS011;59929;43.546;-5.702;2022-09-09T06:29:52;0.00;;;0.00;;
72062;SDS011;59929;43.546;-5.702;2022-09-09T06:32:18;0.00;;;0.00;;
72062;SDS011;59929;43.546;-5.702;2022-09-09T06:34:43;0.00;;;0.00;;
72062;SDS011;59929;43.546;-5.702;2022-09-09T06:37:10;0.00;;;0.00;;
72062;SDS011;59929;43.546;-5.702;2022-09-09T06:39:36;0.00;;;0.00;;
72062;SDS011;59929;43.546;-5.702;2022-09-09T06:42:01;0.00;;;0.00;;
72062;SDS011;59929;43.546;-5.702;2022-09-09T06:44:27;0.00;;;0.00;;
72062;SDS011;59929;43.546;-5.702;2022-09-09T06:46:53;0.00;;;0.00;;
72062;SDS011;59929;43.546;-5.702;2022-09-09T06:49:18;0.00;;;0.00;;
72062;SDS011;59929;43.546;-5.702;2022-09-09T06:51:44;0.00;;;0.00;;
72062;SDS011;59929;43.546;-5.702;2022-09-09T06:54:10;0.00;;;0.00;;
72062;SDS011;59929;43.546;-5.702;2022-09-09T06:56:37;0.00;;;0.00;;
72062;SDS011;59929;43.546;-5.702;2022-09-09T06:59:07;0.00;;;0.00;;
72062;SDS011;59929;43.546;-5.702;2022-09-09T07:01:38;0.00;;;0.00;;
72062;SDS011;59929;43.546;-5.702;2022-09-09T07:04:06;0.00;;;0.00;;
72062;SDS011;59929;43.546;-5.702;2022-09-09T07:06:35;0.00;;;0.00;;
72062;SDS011;59929;43.546;-5.702;2022-09-09T07:09:05;0.00;;;0.00;;
72062;SDS011;59929;43.546;-5.702;2022-09-09T07:11:34;0.00;;;0.00;;
72062;SDS011;59929;43.546;-5.702;2022-09-09T07:14:03;0.00;;;0.00;;
72062;SDS011;59929;43.546;-5.702;2022-09-09T07:16:29;0.20;;;0.00;;
72062;SDS011;59929;43.546;-5.702;2022-09-09T07:18:56;0.00;;;0.00;;
72062;SDS011;59929;43.546;-5.702;2022-09-09T07:21:24;0.05;;;0.00;;
72062;SDS011;59929;43.546;-5.702;2022-09-09T07:23:51;0.20;;;0.00;;
72062;SDS011;59929;43.546;-5.702;2022-09-09T07:26:18;0.10;;;0.00;;
72062;SDS011;59929;43.546;-5.702;2022-09-09T07:28:45;0.20;;;0.00;;
72062;SDS011;59929;43.546;-5.702;2022-09-09T07:31:14;0.35;;;0.00;;
72062;SDS011;59929;43.546;-5.702;2022-09-09T07:33:42;0.05;;;0.00;;
72062;SDS011;59929;43.546;-5.702;2022-09-09T07:36:10;0.00;;;0.00;;
72062;SDS011;59929;43.546;-5.702;2022-09-09T07:38:40;0.00;;;0.00;;
72062;SDS011;59929;43.546;-5.702;2022-09-09T07:41:09;0.00;;;0.00;;
72062;SDS011;59929;43.546;-5.702;2022-09-09T07:43:45;0.00;;;0.00;;
72062;SDS011;59929;43.546;-5.702;2022-09-09T07:46:13;0.00;;;0.00;;
72062;SDS011;59929;43.546;-5.702;2022-09-09T07:51:19;0.00;;;0.00;;
72062;SDS011;59929;43.546;-5.702;2022-09-09T07:53:48;0.00;;;0.00;;
72062;SDS011;59929;43.546;-5.702;2022-09-09T07:56:17;0.00;;;0.00;;
72062;SDS011;59929;43.546;-5.702;2022-09-09T07:58:45;0.00;;;0.00;;
72062;SDS011;59929;43.546;-5.702;2022-09-09T08:01:13;0.00;;;0.00;;
72062;SDS011;59929;43.546;-5.702;2022-09-09T08:03:42;0.00;;;0.00;;
72062;SDS011;59929;43.546;-5.702;2022-09-09T08:06:08;0.00;;;0.00;;
72062;SDS011;59929;43.546;-5.702;2022-09-09T08:08:34;0.00;;;0.00;;
72062;SDS011;59929;43.546;-5.702;2022-09-09T08:11:04;0.00;;;0.00;;
72062;SDS011;59929;43.546;-5.702;2022-09-09T08:13:35;0.08;;;0.00;;
72062;SDS011;59929;43.546;-5.702;2022-09-09T08:16:09;0.20;;;0.00;;
72062;SDS011;59929;43.546;-5.702;2022-09-09T08:18:38;0.00;;;0.00;;
72062;SDS011;59929;43.546;-5.702;2022-09-09T08:21:06;0.00;;;0.00;;
72062;SDS011;59929;43.546;-5.702;2022-09-09T08:23:37;0.00;;;0.00;;
72062;SDS011;59929;43.546;-5.702;2022-09-09T08:26:05;0.00;;;0.00;;
72062;SDS011;59929;43.546;-5.702;2022-09-09T08:28:32;0.00;;;0.00;;
72062;SDS011;59929;43.546;-5.702;2022-09-09T08:31:06;0.00;;;0.00;;
72062;SDS011;59929;43.546;-5.702;2022-09-09T08:33:34;0.00;;;0.00;;
72062;SDS011;59929;43.546;-5.702;2022-09-09T08:36:02;0.20;;;0.00;;
72062;SDS011;59929;43.546;-5.702;2022-09-09T08:38:28;0.00;;;0.00;;
72062;SDS011;59929;43.546;-5.702;2022-09-09T08:40:54;0.00;;;0.00;;
72062;SDS011;59929;43.546;-5.702;2022-09-09T08:43:32;0.00;;;0.00;;
72062;SDS011;59929;43.546;-5.702;2022-09-09T08:46:02;0.00;;;0.00;;
72062;SDS011;59929;43.546;-5.702;2022-09-09T08:48:44;0.00;;;0.00;;
72062;SDS011;59929;43.546;-5.702;2022-09-09T08:51:21;0.20;;;0.00;;
72062;SDS011;59929;43.546;-5.702;2022-09-09T08:53:52;0.00;;;0.00;;
72062;SDS011;59929;43.546;-5.702;2022-09-09T08:56:21;0.10;;;0.00;;
72062;SDS011;59929;43.546;-5.702;2022-09-09T08:58:51;0.00;;;0.00;;
72062;SDS011;59929;43.546;-5.702;2022-09-09T09:01:23;0.00;;;0.00;;
72062;SDS011;59929;43.546;-5.702;2022-09-09T09:04:15;0.00;;;0.00;;
72062;SDS011;59929;43.546;-5.702;2022-09-09T09:07:04;0.00;;;0.00;;
72062;SDS011;59929;43.546;-5.702;2022-09-09T09:09:58;0.00;;;0.00;;
72062;SDS011;59929;43.546;-5.702;2022-09-09T09:12:38;0.00;;;0.00;;
72062;SDS011;59929;43.546;-5.702;2022-09-09T09:15:12;0.00;;;0.00;;
72062;SDS011;59929;43.546;-5.702;2022-09-09T09:17:43;0.00;;;0.00;;
72062;SDS011;59929;43.546;-5.702;2022-09-09T09:20:13;0.00;;;0.00;;
72062;SDS011;59929;43.546;-5.702;2022-09-09T09:22:48;0.00;;;0.00;;
72062;SDS011;59929;43.546;-5.702;2022-09-09T09:25:18;0.00;;;0.00;;
72062;SDS011;59929;43.546;-5.702;2022-09-09T09:30:26;0.00;;;0.00;;
72062;SDS011;59929;43.546;-5.702;2022-09-09T09:32:58;0.00;;;0.00;;
72062;SDS011;59929;43.546;-5.702;2022-09-09T09:35:28;0.07;;;0.00;;
72062;SDS011;59929;43.546;-5.702;2022-09-09T09:37:53;0.00;;;0.00;;
72062;SDS011;59929;43.546;-5.702;2022-09-09T09:40:21;0.00;;;0.00;;
72062;SDS011;59929;43.546;-5.702;2022-09-09T09:42:55;0.00;;;0.00;;
72062;SDS011;59929;43.546;-5.702;2022-09-09T09:45:26;0.00;;;0.00;;
72062;SDS011;59929;43.546;-5.702;2022-09-09T09:47:58;0.00;;;0.00;;
72062;SDS011;59929;43.546;-5.702;2022-09-09T09:50:27;0.00;;;0.00;;
72062;SDS011;59929;43.546;-5.702;2022-09-09T09:52:53;0.00;;;0.00;;
72062;SDS011;59929;43.546;-5.702;2022-09-09T09:55:22;0.00;;;0.00;;
72062;SDS011;59929;43.546;-5.702;2022-09-09T09:57:49;0.10;;;0.00;;
72062;SDS011;59929;43.546;-5.702;2022-09-09T10:00:16;0.00;;;0.00;;
72062;SDS011;59929;43.546;-5.702;2022-09-09T10:02:45;0.00;;;0.00;;
72062;SDS011;59929;43.546;-5.702;2022-09-09T10:05:14;0.00;;;0.00;;
72062;SDS011;59929;43.546;-5.702;2022-09-09T10:07:42;0.00;;;0.00;;
72062;SDS011;59929;43.546;-5.702;2022-09-09T10:10:20;0.00;;;0.00;;
72062;SDS011;59929;43.546;-5.702;2022-09-09T10:12:59;0.03;;;0.00;;
72062;SDS011;59929;43.546;-5.702;2022-09-09T10:16:00;0.00;;;0.00;;
72062;SDS011;59929;43.546;-5.702;2022-09-09T10:18:43;0.00;;;0.00;;
72062;SDS011;59929;43.546;-5.702;2022-09-09T10:21:34;0.00;;;0.00;;
72062;SDS011;59929;43.546;-5.702;2022-09-09T10:30:12;0.00;;;0.00;;
72062;SDS011;59929;43.546;-5.702;2022-09-09T10:32:46;0.00;;;0.00;;
72062;SDS011;59929;43.546;-5.702;2022-09-09T10:35:34;0.00;;;0.00;;
72062;SDS011;59929;43.546;-5.702;2022-09-09T10:38:10;0.00;;;0.00;;
72062;SDS011;59929;43.546;-5.702;2022-09-09T10:41:15;0.00;;;0.00;;
72062;SDS011;59929;43.546;-5.702;2022-09-09T10:49:52;0.00;;;0.00;;
72062;SDS011;59929;43.546;-5.702;2022-09-09T10:52:42;0.00;;;0.00;;
72062;SDS011;59929;43.546;-5.702;2022-09-09T10:55:53;0.00;;;0.00;;
72062;SDS011;59929;43.546;-5.702;2022-09-09T10:58:23;0.00;;;0.00;;
72062;SDS011;59929;43.546;-5.702;2022-09-09T11:00:55;0.00;;;0.00;;
72062;SDS011;59929;43.546;-5.702;2022-09-09T11:03:27;0.00;;;0.00;;
72062;SDS011;59929;43.546;-5.702;2022-09-09T11:05:56;0.00;;;0.00;;
72062;SDS011;59929;43.546;-5.702;2022-09-09T11:08:26;0.00;;;0.00;;
72062;SDS011;59929;43.546;-5.702;2022-09-09T11:13:47;0.00;;;0.00;;
72062;SDS011;59929;43.546;-5.702;2022-09-09T11:22:07;0.00;;;0.00;;
72062;SDS011;59929;43.546;-5.702;2022-09-09T11:24:50;0.00;;;0.00;;
72062;SDS011;59929;43.546;-5.702;2022-09-09T11:30:15;0.00;;;0.00;;
72062;SDS011;59929;43.546;-5.702;2022-09-09T11:32:53;0.00;;;0.00;;
72062;SDS011;59929;43.546;-5.702;2022-09-09T11:35:38;0.00;;;0.00;;
72062;SDS011;59929;43.546;-5.702;2022-09-09T11:38:33;0.00;;;0.00;;
72062;SDS011;59929;43.546;-5.702;2022-09-09T11:41:12;0.00;;;0.00;;
72062;SDS011;59929;43.546;-5.702;2022-09-09T11:43:42;0.00;;;0.00;;
72062;SDS011;59929;43.546;-5.702;2022-09-09T11:46:11;0.00;;;0.00;;
72062;SDS011;59929;43.546;-5.702;2022-09-09T11:48:42;0.00;;;0.00;;
72062;SDS011;59929;43.546;-5.702;2022-09-09T11:51:12;0.10;;;0.00;;
72062;SDS011;59929;43.546;-5.702;2022-09-09T11:53:53;0.00;;;0.00;;
72062;SDS011;59929;43.546;-5.702;2022-09-09T12:02:10;0.00;;;0.00;;
72062;SDS011;59929;43.546;-5.702;2022-09-09T12:04:46;0.00;;;0.00;;
72062;SDS011;59929;43.546;-5.702;2022-09-09T12:07:37;0.00;;;0.00;;
72062;SDS011;59929;43.546;-5.702;2022-09-09T12:12:48;0.00;;;0.00;;
72062;SDS011;59929;43.546;-5.702;2022-09-09T12:15:23;0.00;;;0.00;;
72062;SDS011;59929;43.546;-5.702;2022-09-09T12:17:54;0.00;;;0.00;;
72062;SDS011;59929;43.546;-5.702;2022-09-09T12:20:26;0.00;;;0.00;;
72062;SDS011;59929;43.546;-5.702;2022-09-09T12:25:57;0.00;;;0.00;;
72062;SDS011;59929;43.546;-5.702;2022-09-09T12:31:41;0.10;;;0.00;;
72062;SDS011;59929;43.546;-5.702;2022-09-09T12:34:18;0.03;;;0.00;;
72062;SDS011;59929;43.546;-5.702;2022-09-09T12:37:11;0.00;;;0.00;;
72062;SDS011;59929;43.546;-5.702;2022-09-09T12:39:45;0.10;;;0.00;;
72062;SDS011;59929;43.546;-5.702;2022-09-09T12:42:18;0.00;;;0.00;;
72062;SDS011;59929;43.546;-5.702;2022-09-09T12:44:54;0.00;;;0.00;;
72062;SDS011;59929;43.546;-5.702;2022-09-09T12:47:23;0.00;;;0.00;;
72062;SDS011;59929;43.546;-5.702;2022-09-09T12:49:55;0.08;;;0.00;;
72062;SDS011;59929;43.546;-5.702;2022-09-09T12:52:27;0.00;;;0.00;;
72062;SDS011;59929;43.546;-5.702;2022-09-09T12:54:58;0.00;;;0.00;;
72062;SDS011;59929;43.546;-5.702;2022-09-09T12:57:26;0.00;;;0.00;;
72062;SDS011;59929;43.546;-5.702;2022-09-09T13:00:08;0.00;;;0.00;;
72062;SDS011;59929;43.546;-5.702;2022-09-09T13:05:23;0.10;;;0.00;;
72062;SDS011;59929;43.546;-5.702;2022-09-09T13:07:51;0.00;;;0.00;;
72062;SDS011;59929;43.546;-5.702;2022-09-09T13:10:25;0.10;;;0.00;;
72062;SDS011;59929;43.546;-5.702;2022-09-09T13:12:54;0.00;;;0.00;;
72062;SDS011;59929;43.546;-5.702;2022-09-09T13:15:23;0.10;;;0.00;;
72062;SDS011;59929;43.546;-5.702;2022-09-09T13:18:00;0.03;;;0.00;;
72062;SDS011;59929;43.546;-5.702;2022-09-09T13:20:31;0.20;;;0.00;;
72062;SDS011;59929;43.546;-5.702;2022-09-09T13:22:56;0.00;;;0.00;;
72062;SDS011;59929;43.546;-5.702;2022-09-09T13:25:24;0.10;;;0.00;;
72062;SDS011;59929;43.546;-5.702;2022-09-09T13:28:00;0.00;;;0.00;;
72062;SDS011;59929;43.546;-5.702;2022-09-09T13:30:29;0.00;;;0.00;;
72062;SDS011;59929;43.546;-5.702;2022-09-09T13:35:52;0.00;;;0.00;;
72062;SDS011;59929;43.546;-5.702;2022-09-09T13:38:20;0.00;;;0.00;;
72062;SDS011;59929;43.546;-5.702;2022-09-09T13:40:55;0.00;;;0.00;;
72062;SDS011;59929;43.546;-5.702;2022-09-09T13:43:24;0.00;;;0.00;;
72062;SDS011;59929;43.546;-5.702;2022-09-09T13:45:55;0.00;;;0.00;;
72062;SDS011;59929;43.546;-5.702;2022-09-09T13:48:22;0.00;;;0.00;;
72062;SDS011;59929;43.546;-5.702;2022-09-09T13:50:57;0.00;;;0.00;;
72062;SDS011;59929;43.546;-5.702;2022-09-09T13:53:25;0.00;;;0.00;;
72062;SDS011;59929;43.546;-5.702;2022-09-09T13:55:50;0.00;;;0.00;;
72062;SDS011;59929;43.546;-5.702;2022-09-09T13:58:17;0.47;;;0.20;;
72062;SDS011;59929;43.546;-5.702;2022-09-09T14:00:44;1.20;;;1.00;;
72062;SDS011;59929;43.546;-5.702;2022-09-09T14:03:11;0.95;;;0.70;;
72062;SDS011;59929;43.546;-5.702;2022-09-09T14:05:36;1.33;;;1.17;;
72062;SDS011;59929;43.546;-5.702;2022-09-09T14:08:03;2.00;;;1.80;;
72062;SDS011;59929;43.546;-5.702;2022-09-09T14:10:30;2.45;;;2.25;;
72062;SDS011;59929;43.546;-5.702;2022-09-09T14:12:56;4.20;;;3.90;;
72062;SDS011;59929;43.546;-5.702;2022-09-09T14:15:22;4.05;;;3.75;;
72062;SDS011;59929;43.546;-5.702;2022-09-09T14:17:47;5.57;;;5.17;;
72062;SDS011;59929;43.546;-5.702;2022-09-09T14:20:13;6.20;;;5.80;;
72062;SDS011;59929;43.546;-5.702;2022-09-09T14:22:40;8.32;;;7.82;;
72062;SDS011;59929;43.546;-5.702;2022-09-09T14:25:07;11.03;;;10.43;;
72062;SDS011;59929;43.546;-5.702;2022-09-09T14:27:33;13.95;;;13.25;;
72062;SDS011;59929;43.546;-5.702;2022-09-09T14:29:59;14.55;;;13.77;;
72062;SDS011;59929;43.546;-5.702;2022-09-09T14:32:26;17.07;;;16.17;;
72062;SDS011;59929;43.546;-5.702;2022-09-09T14:34:52;21.52;;;20.45;;
72062;SDS011;59929;43.546;-5.702;2022-09-09T14:37:18;17.08;;;16.17;;
72062;SDS011;59929;43.546;-5.702;2022-09-09T14:39:44;19.90;;;18.90;;
72062;SDS011;59929;43.546;-5.702;2022-09-09T14:42:10;22.03;;;20.93;;
72062;SDS011;59929;43.546;-5.702;2022-09-09T14:44:36;23.15;;;22.05;;
72062;SDS011;59929;43.546;-5.702;2022-09-09T14:47:04;20.65;;;19.65;;
72062;SDS011;59929;43.546;-5.702;2022-09-09T14:49:31;24.88;;;23.67;;
72062;SDS011;59929;43.546;-5.702;2022-09-09T14:51:56;23.43;;;22.33;;
72062;SDS011;59929;43.546;-5.702;2022-09-09T14:54:22;23.00;;;21.90;;
72062;SDS011;59929;43.546;-5.702;2022-09-09T14:56:48;21.83;;;20.73;;
72062;SDS011;59929;43.546;-5.702;2022-09-09T14:59:14;22.38;;;21.27;;
72062;SDS011;59929;43.546;-5.702;2022-09-09T15:01:39;22.00;;;20.90;;
72062;SDS011;59929;43.546;-5.702;2022-09-09T15:04:06;25.67;;;24.48;;
72062;SDS011;59929;43.546;-5.702;2022-09-09T15:06:34;23.60;;;22.45;;
72062;SDS011;59929;43.546;-5.702;2022-09-09T15:09:03;22.20;;;21.10;;
72062;SDS011;59929;43.546;-5.702;2022-09-09T15:11:30;23.50;;;22.40;;
72062;SDS011;59929;43.546;-5.702;2022-09-09T15:13:59;22.08;;;20.98;;
72062;SDS011;59929;43.546;-5.702;2022-09-09T15:16:26;22.40;;;21.30;;
72062;SDS011;59929;43.546;-5.702;2022-09-09T15:18:54;23.33;;;22.23;;
72062;SDS011;59929;43.546;-5.702;2022-09-09T15:21:22;23.38;;;22.27;;
72062;SDS011;59929;43.546;-5.702;2022-09-09T15:23:50;20.98;;;19.98;;
72062;SDS011;59929;43.546;-5.702;2022-09-09T15:26:16;21.17;;;20.15;;
72062;SDS011;59929;43.546;-5.702;2022-09-09T15:28:43;21.77;;;20.67;;
72062;SDS011;59929;43.546;-5.702;2022-09-09T15:31:14;19.83;;;18.83;;
72062;SDS011;59929;43.546;-5.702;2022-09-09T15:33:49;20.02;;;19.02;;
72062;SDS011;59929;43.546;-5.702;2022-09-09T15:36:19;20.17;;;19.17;;
72062;SDS011;59929;43.546;-5.702;2022-09-09T15:38:47;18.92;;;18.02;;
72062;SDS011;59929;43.546;-5.702;2022-09-09T15:41:13;17.95;;;17.05;;
72062;SDS011;59929;43.546;-5.702;2022-09-09T15:43:44;19.43;;;18.43;;
72062;SDS011;59929;43.546;-5.702;2022-09-09T15:49:11;18.08;;;17.17;;
72062;SDS011;59929;43.546;-5.702;2022-09-09T15:51:51;19.02;;;18.08;;
72062;SDS011;59929;43.546;-5.702;2022-09-09T15:54:20;18.20;;;17.30;;
72062;SDS011;59929;43.546;-5.702;2022-09-09T15:56:56;18.47;;;17.57;;
72062;SDS011;59929;43.546;-5.702;2022-09-09T15:59:28;17.60;;;16.70;;
72062;SDS011;59929;43.546;-5.702;2022-09-09T16:01:55;20.90;;;19.90;;
72062;SDS011;59929;43.546;-5.702;2022-09-09T16:04:22;18.17;;;17.27;;
72062;SDS011;59929;43.546;-5.702;2022-09-09T16:06:50;17.13;;;16.23;;
72062;SDS011;59929;43.546;-5.702;2022-09-09T16:09:17;13.40;;;12.70;;